2CD2 weather

Public forecast

Using degrees Fahrenheit for public forecast. Weather courtesy of forecast.io.

Closest aviation weather report (METAR) to Medical Center Of The Rockies Heliport

Closest report is Northern Colorado Regional Airport, 2.1 nm (3.9 km) NNW. Retrieved 2020/08/11 23:56 UTC (54 minutes ago):

KFNL 112356Z 02012KT 10SM FEW100 32/01 A2996 RMK AO2 SLP077 6//// T03220011 10361 20311 56010 PNO

Closest aviation forecast (TAF) to Medical Center Of The Rockies Heliport

Closest forecast is Rocky Mountain Metropolitan Airport, 31.0 nm (57.5 km) S. Retrieved 2020-08-12 00:42 UTC (8 minutes ago):

TAF KBJC 112339Z 1200/1224 02010G25KT P6SM SCT080 SCT140 BKN220 FM120300 29008KT P6SM SCT080 SCT140 FM120900 25005KT P6SM FEW160 FM122200 33010KT P6SM SCT160